Flight Track Log - Related Links

Times and Time Zones

All times are in EDT time to prevent confusion due to time zone crossing. See the EJA951 flight status page for this flight to view local times or setup timezone preferences in your user account.

Time Position Orientation Groundspeed Altitude Reporting Facility
EDT Latitude Longitude Course Direction KTS MPH feet Rate Location/Type
Tue 06:05:04 PM 38.9500 -77.5000 256° West 182 209 1,700  Level Potomac TRACON
Tue 06:06:04 PM 38.9333 -77.5833 256° West 244 281 4,600 2,700 Climbing Potomac TRACON
Tue 06:07:04 PM 38.9167 -77.6667 256° West 247 284 7,100 2,579 Climbing Potomac TRACON
Tue 06:07:58 PM 38.8833 -77.7500 243° Southwest 271 312 9,500 2,579 Climbing Potomac TRACON
Tue 06:08:58 PM 38.8333 -77.8167 226° Southwest 283 326 12,000 2,450 Climbing Potomac TRACON
Tue 06:09:58 PM 38.7833 -77.9000 232° Southwest 296 341 14,400 2,300 Climbing Potomac TRACON
Tue 06:10:58 PM 38.7167 -77.9833 224° Southwest 309 356 16,600 1,091 Climbing Potomac TRACON
Tue 06:12:21 PM 38.7725 -78.1053 300° West 309 356 17,000 500 Climbing Washington Center
Tue 06:13:22 PM 38.8353 -78.1953 312° West 329 379 17,800 1,041 Climbing Washington Center
Tue 06:14:22 PM 38.8553 -78.3294 281° West 367 422 19,100 1,109 Climbing Washington Center
Tue 06:15:21 PM 38.8519 -78.4731 268° West 373 429 20,000 1,300 Climbing Washington Center
Tue 06:16:22 PM 38.8503 -78.6169 269° West 395 455 21,700 2,083 Climbing Washington Center
Tue 06:17:22 PM 38.8467 -78.7556 268° West 401 461 24,200 2,288 Climbing Washington Center
Tue 06:18:20 PM 38.8453 -78.8914 269° West 396 456 26,200 1,424 Climbing Washington Center
Tue 06:19:20 PM 38.8433 -79.0300 269° West 391 450 27,000 397 Climbing Washington Center
Tue 06:20:21 PM 38.8411 -79.1844 269° West 411 473 27,000 250 Level Washington Center
Tue 06:21:20 PM 38.8381 -79.3469 269° West 442 509 27,500 1,200 Climbing Washington Center
Tue 06:22:21 PM 38.8353 -79.5014 269° West 447 514 29,400 1,869 Climbing Washington Center
Tue 06:23:22 PM 38.8314 -79.6769 268° West 447 514 31,300 1,884 Climbing Washington Center
Tue 06:24:22 PM 38.8289 -79.8128 269° West 440 506 33,200 1,884 Climbing Washington Center
Tue 06:25:23 PM 38.8278 -79.9619 269° West 428 493 35,100 1,909 Climbing Washington Center
Tue 06:26:34 PM 38.8192 -80.1383 266° West 405 466 37,400 1,489 Climbing Indianapolis Center
Tue 06:27:36 PM 38.8150 -80.2794 268° West 400 460 38,400 919 Climbing Indianapolis Center
Tue 06:28:38 PM 38.8103 -80.4219 268° West 400 460 39,300 768 Climbing Indianapolis Center
Tue 06:29:41 PM 38.8061 -80.5647 268° West 400 460 40,000 336 Climbing Indianapolis Center
Tue 06:30:43 PM 38.8017 -80.7108 268° West 406 467 40,000  Level Indianapolis Center
Tue 06:31:45 PM 38.7961 -80.8914 268° West 420 483 40,000  Level Indianapolis Center
Tue 06:32:47 PM 38.7908 -81.0436 268° West 424 488 40,000  Level Indianapolis Center
Tue 06:33:49 PM 38.7861 -81.1944 268° West 424 488 40,000  Level Indianapolis Center
Tue 06:34:51 PM 38.7808 -81.3450 267° West 425 489 40,000  Level Indianapolis Center
Tue 06:35:53 PM 38.7744 -81.5078 267° West 425 489 40,000  Level Indianapolis Center
Tue 06:36:55 PM 38.7692 -81.6572 267° West 425 489 40,000  Level Indianapolis Center
Tue 06:37:57 PM 38.7633 -81.8086 267° West 416 479 40,000  Level Indianapolis Center
Tue 06:38:59 PM 38.7567 -81.9536 267° West 411 473 40,000  Level Indianapolis Center
Tue 06:40:01 PM 38.7508 -82.0986 267° West 410 472 40,000  Level Indianapolis Center
Tue 06:41:04 PM 38.7450 -82.2742 268° West 410 472 40,000  Level Indianapolis Center
Tue 06:42:06 PM 38.7392 -82.4214 267° West 413 475 40,000  Level Indianapolis Center
Tue 06:43:08 PM 38.7331 -82.5689 267° West 413 475 40,000  Level Indianapolis Center
Tue 06:44:10 PM 38.7267 -82.7139 267° West 412 474 40,000  Level Indianapolis Center
Tue 06:45:12 PM 38.7206 -82.8611 267° West 413 475 40,000  Level Indianapolis Center
Tue 06:46:14 PM 38.7142 -83.0083 267° West 413 475 40,000  Level Indianapolis Center
Tue 06:47:16 PM 38.7075 -83.1703 267° West 413 475 40,000  Level Indianapolis Center
Tue 06:48:18 PM 38.7000 -83.3183 266° West 413 475 40,000  Level Indianapolis Center
Tue 06:49:20 PM 38.6922 -83.4647 266° West 413 475 40,000  Level Indianapolis Center
Tue 06:50:22 PM 38.6861 -83.6119 267° West 413 475 40,000  Level Indianapolis Center
Tue 06:51:24 PM 38.6769 -83.7869 266° West 413 475 40,000  Level Indianapolis Center
Tue 06:52:26 PM 38.6689 -83.9325 266° West 413 475 40,000  Level Indianapolis Center
Tue 06:53:28 PM 38.6614 -84.0786 266° West 413 475 40,000  Level Indianapolis Center
Tue 06:54:30 PM 38.6533 -84.2250 266° West 413 475 40,000  Level Indianapolis Center
Tue 06:55:32 PM 38.6531 -84.3733 270° West 413 475 40,000  Level Indianapolis Center
Tue 06:56:34 PM 38.6628 -84.5408 274° West 411 473 40,000  Level Indianapolis Center
Tue 06:57:36 PM 38.6706 -84.6892 274° West 412 474 40,000  Level Indianapolis Center
Tue 06:58:38 PM 38.6792 -84.8344 274° West 412 474 40,000  Level Indianapolis Center
Tue 06:59:40 PM 38.6875 -84.9814 274° West 413 475 40,000  Level Indianapolis Center
Tue 07:00:42 PM 38.6956 -85.1261 274° West 412 474 40,000  Level Indianapolis Center
Tue 07:01:44 PM 38.7039 -85.2694 274° West 408 470 40,000  Level Indianapolis Center
Tue 07:02:46 PM 38.7122 -85.4414 274° West 405 466 40,000  Level Indianapolis Center
Tue 07:03:48 PM 38.7194 -85.5842 274° West 405 466 40,000  Level Indianapolis Center
Tue 07:04:50 PM 38.7267 -85.7236 274° West 399 459 40,000  Level Indianapolis Center
Tue 07:05:52 PM 38.7331 -85.8650 273° West 399 459 40,000  Level Indianapolis Center
Tue 07:06:54 PM 38.7403 -86.0144 274° West 399 459 40,000  Level Indianapolis Center
Tue 07:07:56 PM 38.7467 -86.1536 273° West 397 457 40,000  Level Indianapolis Center
Tue 07:08:58 PM 38.7525 -86.2942 273° West 396 456 40,000  Level Indianapolis Center
Tue 07:10:00 PM 38.7589 -86.4331 273° West 396 456 40,000  Level Indianapolis Center
Tue 07:11:02 PM 38.7642 -86.5731 273° West 395 455 40,000  Level Indianapolis Center
Tue 07:12:04 PM 38.7711 -86.7414 273° West 395 455 40,000  Level Indianapolis Center
Tue 07:13:05 PM 38.7767 -86.8814 273° West 395 455 40,000  Level Indianapolis Center
Tue 07:14:07 PM 38.7819 -87.0217 273° West 395 455 40,000  Level Indianapolis Center
Tue 07:15:09 PM 38.7878 -87.1631 273° West 395 455 40,000  Level Indianapolis Center
Tue 07:16:11 PM 38.7933 -87.3047 273° West 396 456 40,000  Level Indianapolis Center
Tue 07:17:13 PM 38.7978 -87.4461 272° West 396 456 40,000  Level Indianapolis Center
Tue 07:18:15 PM 38.8036 -87.6164 273° West 397 457 40,000  Level Indianapolis Center
Tue 07:19:17 PM 38.8083 -87.7600 272° West 400 460 40,000  Level Indianapolis Center
Tue 07:20:18 PM 38.8117 -87.9036 272° West 401 461 40,000  Level Indianapolis Center
Tue 07:21:20 PM 38.8158 -88.0481 272° West 401 461 40,000  Level Indianapolis Center
Tue 07:22:11 PM 38.8172 -88.1667 271° West 402 463 40,000  Level Kansas City Center
Tue 07:23:14 PM 38.8203 -88.3100 272° West 403 464 40,000  Level Kansas City Center
Tue 07:24:15 PM 38.8233 -88.4542 272° West 403 464 40,000  Level Kansas City Center
Tue 07:25:19 PM 38.8278 -88.6267 272° West 403 464 40,000  Level Kansas City Center
Tue 07:26:20 PM 38.8311 -88.7494 272° West 403 464 40,000  Level Kansas City Center
Tue 07:27:23 PM 38.8347 -88.9239 272° West 405 466 40,000  Level Kansas City Center
Tue 07:28:23 PM 38.8417 -89.0708 274° West 408 470 40,000  Level Kansas City Center
Tue 07:29:27 PM 38.8442 -89.2167 271° West 409 471 40,000  Level Kansas City Center
Tue 07:30:27 PM 38.8469 -89.3625 271° West 410 472 40,000  Level Kansas City Center
Tue 07:31:28 PM 38.8486 -89.5103 271° West 411 473 40,000  Level Kansas City Center
Tue 07:32:32 PM 38.8514 -89.6589 271° West 415 478 40,000  Level Kansas City Center
Tue 07:33:32 PM 38.8536 -89.8378 271° West 416 479 40,000  Level Kansas City Center
Tue 07:34:36 PM 38.8556 -89.9853 271° West 416 479 40,000  Level Kansas City Center
Tue 07:35:37 PM 38.8578 -90.1294 271° West 415 478 40,000  Level Kansas City Center
Tue 07:36:40 PM 38.8581 -90.2769 270° West 413 475 40,000  Level Kansas City Center
Tue 07:37:40 PM 38.8608 -90.4297 271° West 420 483 40,000  Level Kansas City Center
Tue 07:38:44 PM 38.8756 -90.6075 276° West 423 487 40,000  Level Kansas City Center
Tue 07:39:44 PM 38.8914 -90.7464 278° West 424 488 40,000  Level Kansas City Center
Tue 07:40:46 PM 38.9097 -90.8961 279° West 424 488 40,000  Level Kansas City Center
Tue 07:41:48 PM 38.9264 -91.0461 278° West 425 489 40,000  Level Kansas City Center
Tue 07:42:51 PM 38.9439 -91.1978 278° West 426 490 40,000  Level Kansas City Center
Tue 07:43:52 PM 38.9644 -91.3778 278° West 426 490 40,000  Level Kansas City Center
Tue 07:44:54 PM 38.9803 -91.5289 278° West 427 491 40,000  Level Kansas City Center
Tue 07:45:57 PM 38.9969 -91.6800 278° West 427 491 40,000  Level Kansas City Center
Tue 07:46:58 PM 39.0147 -91.8486 278° West 428 493 40,000  Level Kansas City Center
Tue 07:48:02 PM 39.0294 -92.0008 277° West 429 494 40,000  Level Kansas City Center
Tue 07:49:03 PM 39.0456 -92.1536 278° West 429 494 40,000  Level Kansas City Center
Tue 07:50:04 PM 39.0622 -92.3061 278° West 429 494 40,000  Level Kansas City Center
Tue 07:51:06 PM 39.0767 -92.4608 277° West 431 496 40,000  Level Kansas City Center
Tue 07:52:09 PM 39.0922 -92.6164 277° West 432 497 40,000  Level Kansas City Center
Tue 07:53:10 PM 39.1089 -92.7789 278° West 433 498 40,000  Level Kansas City Center
Tue 07:54:11 PM 39.1236 -92.9356 277° West 435 501 40,000  Level Kansas City Center
Tue 07:55:15 PM 39.1417 -93.1219 277° West 437 503 40,000  Level Kansas City Center
Tue 07:56:16 PM 39.1564 -93.2781 277° West 439 505 40,000  Level Kansas City Center
Tue 07:57:17 PM 39.1708 -93.4344 277° West 438 504 40,000 435 Level Kansas City Center
Tue 07:58:20 PM 39.1856 -93.5839 277° West 439 505 40,900 919 Climbing Kansas City Center
Tue 07:59:21 PM 39.2008 -93.7517 277° West 426 490 41,900 864 Climbing Kansas City Center
Tue 08:00:25 PM 39.2133 -93.8922 277° West 416 479 42,700 528 Climbing Kansas City Center
Tue 08:01:26 PM 39.2275 -94.0531 277° West 408 470 43,000 149 Climbing Kansas City Center
Tue 08:02:26 PM 39.2389 -94.1922 276° West 407 468 43,000  Level Kansas City Center
Tue 08:03:30 PM 39.2542 -94.3572 277° West 412 474 43,000  Level Kansas City Center
Tue 08:04:30 PM 39.2664 -94.5011 276° West 418 481 43,000  Level Kansas City Center
Tue 08:05:32 PM 39.2797 -94.6689 276° West 419 482 43,000  Level Kansas City Center
Tue 08:06:35 PM 39.2758 -94.8128 268° West 417 480 43,000  Level Kansas City Center
Tue 08:07:36 PM 39.2594 -94.9578 262° West 426 490 43,000  Level Kansas City Center
Tue 08:08:40 PM 39.2386 -95.1383 262° West 426 490 43,000  Level Kansas City Center
Tue 08:09:40 PM 39.2225 -95.2839 262° West 426 490 43,000  Level Kansas City Center
Tue 08:10:41 PM 39.2042 -95.4408 261° West 425 489 43,000  Level Kansas City Center
Tue 08:11:43 PM 39.1856 -95.5956 261° West 425 489 43,000  Level Kansas City Center
Tue 08:12:47 PM 39.1683 -95.7397 261° West 426 490 43,000  Level Kansas City Center
Tue 08:13:49 PM 39.1478 -95.9100 261° West 429 494 43,000  Level Kansas City Center
Tue 08:14:49 PM 39.1297 -96.0544 261° West 429 494 43,000  Level Kansas City Center
Tue 08:15:51 PM 39.1086 -96.2233 261° West 429 494 43,000  Level Kansas City Center
Tue 08:16:52 PM 39.0906 -96.3683 261° West 429 494 43,000  Level Kansas City Center
Tue 08:17:56 PM 39.0719 -96.5133 261° West 428 493 43,000  Level Kansas City Center
Tue 08:18:56 PM 39.0525 -96.6822 262° West 428 493 43,000  Level Kansas City Center
Tue 08:20:00 PM 39.0322 -96.8272 260° West 429 494 43,000  Level Kansas City Center
Tue 08:21:01 PM 39.0092 -96.9972 260° West 429 494 43,000  Level Kansas City Center
Tue 08:22:03 PM 38.9906 -97.1422 261° West 429 494 43,000  Level Kansas City Center
Tue 08:23:03 PM 38.9700 -97.2911 260° West 430 495 43,000  Level Kansas City Center
Tue 08:24:07 PM 38.9494 -97.4428 260° West 430 495 43,000  Level Kansas City Center
Tue 08:25:08 PM 38.9253 -97.6253 260° West 430 495 43,000  Level Kansas City Center
Tue 08:26:10 PM 38.9078 -97.7706 261° West 430 495 43,000  Level Kansas City Center
Tue 08:27:13 PM 38.8886 -97.9242 261° West 430 495 43,000  Level Kansas City Center
Tue 08:28:14 PM 38.8703 -98.0742 261° West 430 495 43,000  Level Kansas City Center
Tue 08:29:15 PM 38.8511 -98.2233 261° West 428 493 43,000  Level Kansas City Center
Tue 08:30:18 PM 38.8322 -98.3728 261° West 428 493 43,000  Level Kansas City Center
Tue 08:31:19 PM 38.8103 -98.5519 261° West 428 493 43,000  Level Kansas City Center
Tue 08:32:21 PM 38.7903 -98.7014 260° West 428 493 43,000  Level Kansas City Center
Tue 08:33:22 PM 38.7717 -98.8486 261° West 426 490 43,000  Level Kansas City Center
Tue 08:34:23 PM 38.7522 -98.9967 260° West 425 489 43,000  Level Kansas City Center
Tue 08:35:25 PM 38.7331 -99.1436 261° West 423 487 43,000  Level Kansas City Center
Tue 08:36:27 PM 38.7125 -99.2919 260° West 423 487 43,000  Level Kansas City Center
Tue 08:37:29 PM 38.6886 -99.4700 260° West 423 487 43,000  Level Kansas City Center
Tue 08:38:31 PM 38.6667 -99.6219 260° West 423 487 43,000  Level Kansas City Center
Tue 08:39:33 PM 38.6461 -99.7653 260° West 424 488 43,000  Level Kansas City Center
Tue 08:40:35 PM 38.6242 -99.9358 261° West 431 496 43,000  Level Kansas City Center
Tue 08:41:36 PM 38.6022 -100.0800 259° West 432 497 43,000  Level Kansas City Center
Tue 08:42:38 PM 38.5778 -100.2481 260° West 432 497 43,000  Level Kansas City Center
Tue 08:43:40 PM 38.5561 -100.3944 259° West 435 501 43,000  Level Kansas City Center
Tue 08:44:40 PM 38.5319 -100.5631 260° West 435 501 43,000  Level Kansas City Center
Tue 08:45:42 PM 38.5097 -100.7061 259° West 434 499 43,000  Level Kansas City Center
Tue 08:46:46 PM 38.4881 -100.8472 259° West 432 497 43,000  Level Kansas City Center
Tue 08:47:46 PM 38.4633 -101.0128 259° West 430 495 43,000  Level Kansas City Center
Tue 08:48:50 PM 38.4422 -101.1519 259° West 425 489 43,000  Level Kansas City Center
Tue 08:49:50 PM 38.4169 -101.3150 259° West 424 488 43,000  Level Kansas City Center
Tue 08:50:52 PM 38.3944 -101.4561 259° West 424 488 43,000  Level Kansas City Center
Tue 08:51:52 PM 38.3683 -101.6186 258° West 423 487 43,000  Level Kansas City Center
Tue 08:52:23 PM 38.3600 -101.6850 261° West 422 486 43,000  Level Denver Center
Tue 08:53:24 PM 38.3369 -101.8261 258° West 426 490 43,000  Level Denver Center
Tue 08:54:26 PM 38.3100 -101.9919 258° West 426 490 43,000  Level Denver Center
Tue 08:55:28 PM 38.2869 -102.1356 258° West 429 494 43,000  Level Denver Center
Tue 08:56:30 PM 38.2597 -102.3014 258° West 430 495 43,000  Level Denver Center
Tue 08:57:32 PM 38.2375 -102.4436 259° West 430 495 43,000  Level Denver Center
Tue 08:58:34 PM 38.2092 -102.6097 258° West 431 496 43,000  Level Denver Center
Tue 08:59:36 PM 38.1806 -102.7511 256° West 431 496 43,000  Level Denver Center
Tue 09:00:38 PM 38.1397 -102.9119 252° West 431 496 43,000  Level Denver Center
Tue 09:01:40 PM 38.1022 -103.0514 251° West 432 497 43,000  Level Denver Center
Tue 09:02:42 PM 38.0617 -103.2103 252° West 433 498 43,000  Level Denver Center
Tue 09:03:44 PM 38.0258 -103.3494 252° West 433 498 43,000  Level Denver Center
Tue 09:04:46 PM 37.9839 -103.5106 252° West 434 499 43,000  Level Denver Center
Tue 09:05:47 PM 37.9464 -103.6500 251° West 434 499 43,000  Level Denver Center
Tue 09:06:49 PM 37.9042 -103.8111 252° West 435 501 43,000  Level Denver Center
Tue 09:07:51 PM 37.8675 -103.9492 251° West 435 501 43,000  Level Denver Center
Tue 09:08:53 PM 37.8239 -104.1108 251° West 435 501 43,000  Level Denver Center
Tue 09:09:55 PM 37.7858 -104.2478 251° West 436 502 43,000  Level Denver Center
Tue 09:10:57 PM 37.7422 -104.4094 251° West 436 502 43,000  Level Denver Center
Tue 09:11:58 PM 37.7056 -104.5492 252° West 437 503 43,000  Level Denver Center
Tue 09:13:00 PM 37.6614 -104.7083 251° West 436 502 43,000  Level Denver Center
Tue 09:14:02 PM 37.6228 -104.8456 250° West 433 498 43,000  Level Denver Center
Tue 09:15:04 PM 37.5839 -104.9842 251° West 435 501 43,000  Level Denver Center
Tue 09:16:06 PM 37.5403 -105.1456 251° West 435 501 43,000  Level Denver Center
Tue 09:17:08 PM 37.4986 -105.2894 250° West 437 503 43,000  Level Denver Center
Tue 09:18:09 PM 37.4531 -105.4514 251° West 439 505 43,000  Level Denver Center
Tue 09:19:11 PM 37.4144 -105.5914 251° West 441 507 43,000  Level Denver Center
Tue 09:20:13 PM 37.3733 -105.7278 249° West 438 504 43,000  Level Denver Center
Tue 09:21:15 PM 37.3297 -105.8883 251° West 437 503 43,000  Level Denver Center
Tue 09:22:17 PM 37.2947 -106.0292 253° West 437 503 43,000  Level Denver Center
Tue 09:23:19 PM 37.2528 -106.1928 252° West 439 505 43,000  Level Denver Center
Tue 09:24:21 PM 37.2172 -106.3333 252° West 440 506 43,000  Level Denver Center
Tue 09:25:22 PM 37.1744 -106.4964 252° West 440 506 43,000  Level Denver Center
Tue 09:26:24 PM 37.1383 -106.6378 252° West 442 509 43,000  Level Denver Center
Tue 09:27:26 PM 37.0939 -106.8022 251° West 444 511 43,000  Level Denver Center
Tue 09:28:28 PM 37.0572 -106.9456 252° West 449 517 43,000  Level Denver Center
Tue 09:29:30 PM 37.0125 -107.1108 251° West 449 517 43,000  Level Denver Center
Tue 09:30:32 PM 36.9756 -107.2525 252° West 449 517 43,000  Level Denver Center
Tue 09:31:33 PM 36.9375 -107.3950 252° West 449 517 43,000  Level Denver Center
Tue 09:32:35 PM 36.8922 -107.5619 251° West 452 520 43,000  Level Denver Center
Tue 09:33:37 PM 36.8531 -107.7053 251° West 453 521 43,000  Level Denver Center
Tue 09:34:39 PM 36.8072 -107.8714 251° West 455 524 43,000  Level Denver Center
Tue 09:35:40 PM 36.7683 -108.0139 251° West 454 522 43,000  Level Denver Center
Tue 09:36:42 PM 36.7225 -108.1808 251° West 454 522 43,000  Level Denver Center
Tue 09:37:44 PM 36.6819 -108.3244 251° West 455 524 43,000  Level Denver Center
Tue 09:38:46 PM 36.6358 -108.4900 251° West 456 525 43,000  Level Denver Center
Tue 09:39:47 PM 36.5953 -108.6344 251° West 460 529 43,000  Level Denver Center
Tue 09:40:49 PM 36.5553 -108.7772 251° West 460 529 43,000  Level Denver Center
Tue 09:41:51 PM 36.5072 -108.9439 250° West 460 529 43,000  Level Denver Center
Tue 09:42:53 PM 36.4669 -109.0853 251° West 460 529 43,000  Level Denver Center
Tue 09:43:55 PM 36.4192 -109.2497 250° West 459 528 43,000  Level Denver Center
Tue 09:44:56 PM 36.3781 -109.3911 250° West 459 528 43,000  Level Denver Center
Tue 09:45:58 PM 36.3297 -109.5564 250° West 459 528 43,000  Level Denver Center
Tue 09:47:00 PM 36.2883 -109.6972 250° West 458 527 43,000  Level Denver Center
Tue 09:48:02 PM 36.2406 -109.8617 250° West 458 527 43,000  Level Denver Center
Tue 09:49:04 PM 36.1981 -110.0025 250° West 458 527 43,000  Level Denver Center
Tue 09:50:05 PM 36.1506 -110.1636 250° West 458 527 43,000  Level Denver Center
Tue 09:51:07 PM 36.1067 -110.3125 250° West 458 527 43,000  Level Denver Center
Tue 09:52:09 PM 36.0617 -110.4603 249° West 458 527 43,000  Level Denver Center
Tue 09:53:11 PM 36.0178 -110.6064 250° West 458 527 43,000  Level Denver Center
Tue 09:54:13 PM 35.9722 -110.7547 249° West 458 527 43,000  Level Denver Center
Tue 09:55:14 PM 35.9272 -110.9025 249° West 458 527 43,000  Level Denver Center
Tue 09:56:16 PM 35.8742 -111.0783 250° West 458 527 43,000  Level Denver Center
Tue 09:57:30 PM 35.8294 -111.2231 249° West 457 526 43,000  Level Denver Center
Tue 09:58:32 PM 35.7753 -111.3972 249° West 456 525 43,000  Level Denver Center
Tue 09:59:34 PM 35.7297 -111.5406 249° West 455 524 43,000  Level Denver Center
Tue 10:00:36 PM 35.6844 -111.6858 249° West 455 524 43,000  Level Denver Center
Tue 10:01:15 PM 35.6511 -111.7889 248° West 454 522 43,000  Level Los Angeles Center
Tue 10:02:16 PM 35.6044 -111.9353 249° West 461 531 43,000  Level Los Angeles Center
Tue 10:03:18 PM 35.5589 -112.0822 249° West 462 532 43,000  Level Los Angeles Center
Tue 10:04:19 PM 35.5128 -112.2269 249° West 459 528 43,000  Level Los Angeles Center
Tue 10:06:23 PM 35.4092 -112.5483 248° West 462 532 43,000  Level Los Angeles Center
Tue 10:07:16 PM 35.3708 -112.6650 248° West 462 532 43,000  Level Albuquerque Center
Tue 10:08:17 PM 35.3222 -112.8122 248° West 460 529 43,000  Level Albuquerque Center
Tue 10:09:19 PM 35.2753 -112.9572 248° West 460 529 43,000  Level Albuquerque Center
Tue 10:10:20 PM 35.2253 -113.1125 249° West 463 533 43,000  Level Albuquerque Center
Tue 10:11:22 PM 35.1783 -113.2544 248° West 454 522 43,000  Level Albuquerque Center
Tue 10:12:23 PM 35.1297 -113.3975 247° West 455 524 43,000 -148 Level Albuquerque Center
Tue 10:13:24 PM 35.0831 -113.5403 248° West 455 524 42,700 -1,171 Descending Albuquerque Center
Tue 10:14:26 PM 35.0358 -113.6819 248° West 454 522 40,600 -2,146 Descending Albuquerque Center
Tue 10:15:27 PM 34.9794 -113.8486 248° West 447 514 38,300 -2,066 Descending Albuquerque Center
Tue 10:16:28 PM 34.9322 -113.9878 248° West 446 513 36,400 -1,820 Descending Albuquerque Center
Tue 10:17:29 PM 34.8875 -114.1197 248° West 443 510 34,600 -1,805 Descending Albuquerque Center
Tue 10:18:31 PM 34.8394 -114.2578 247° West 441 507 32,700 -1,902 Descending Albuquerque Center
Tue 10:19:32 PM 34.7911 -114.4006 248° West 450 518 30,700 -1,328 Descending Albuquerque Center
Tue 10:20:33 PM 34.7203 -114.5286 236° Southwest 462 532 30,000 -304 Descending Albuquerque Center
Tue 10:21:50 PM 34.6017 -114.6619 223° Southwest 419 482 30,000 -130 Level Los Angeles Center
Tue 10:22:51 PM 34.5211 -114.7528 223° Southwest 403 464 29,700 -683 Descending Los Angeles Center
Tue 10:23:53 PM 34.4417 -114.8417 223° Southwest 393 452 28,600 -823 Descending Los Angeles Center
Tue 10:24:55 PM 34.3650 -114.9286 223° Southwest 384 442 28,000 -293 Descending Los Angeles Center
Tue 10:25:56 PM 34.2869 -115.0183 224° Southwest 384 442 28,000  Level Los Angeles Center
Tue 10:26:58 PM 34.2069 -115.1072 223° Southwest 389 448 28,000  Level Los Angeles Center
Tue 10:28:00 PM 34.1275 -115.1975 223° Southwest 392 451 28,000 -145 Level Los Angeles Center
Tue 10:29:02 PM 34.0264 -115.3108 223° Southwest 410 472 27,700 -823 Descending Los Angeles Center
Tue 10:30:04 PM 33.9394 -115.4078 223° Southwest 425 489 26,300 -1,366 Descending Los Angeles Center
Tue 10:31:05 PM 33.8569 -115.4994 223° Southwest 409 471 24,900 -1,122 Descending Los Angeles Center
Tue 10:32:07 PM 33.7767 -115.5903 223° Southwest 399 459 24,000 -435 Descending Los Angeles Center
Tue 10:33:09 PM 33.6942 -115.6797 222° Southwest 400 460 24,000  Level Los Angeles Center
Tue 10:34:10 PM 33.6136 -115.7719 224° Southwest 401 461 24,000  Level Los Angeles Center
Tue 10:35:12 PM 33.5522 -115.8800 236° Southwest 393 452 24,000  Level Los Angeles Center
Tue 10:36:14 PM 33.4778 -116.0081 235° Southwest 392 451 24,000 -439 Level Los Angeles Center
Tue 10:37:15 PM 33.4014 -116.0939 223° Southwest 374 430 23,100 -1,610 Descending Los Angeles Center
Tue 10:38:17 PM 33.3172 -116.1678 216° Southwest 375 432 20,700 -2,419 Descending Los Angeles Center
Tue 10:39:19 PM 33.2283 -116.2467 217° Southwest 396 456 18,100 -2,341 Descending Los Angeles Center
Tue 10:40:20 PM 33.1469 -116.3183 216° Southwest 376 433 15,900 -2,146 Descending Los Angeles Center
Tue 10:41:22 PM 33.0714 -116.3856 217° Southwest 347 399 13,700 -1,887 Descending Los Angeles Center
Tue 10:42:24 PM 32.9872 -116.4553 215° Southwest 327 376 12,000 -829 Descending Los Angeles Center
Tue 10:43:25 PM 32.9044 -116.5019 205° Southwest 327 376 12,000  Level Los Angeles Center
Tue 10:44:27 PM 32.8319 -116.5581 213° Southwest 322 371 12,000 -532 Level Los Angeles Center
Tue 10:45:29 PM 32.7892 -116.6447 240° Southwest 308 354 10,900 -1,366 Descending Los Angeles Center
Tue 10:46:30 PM 32.7492 -116.7283 240° Southwest 300 345 9,200 -1,707 Descending Los Angeles Center
Tue 10:47:32 PM 32.7128 -116.8072 241° Southwest 237 273 7,400 -2,049 Descending Los Angeles Center
Tue 10:48:33 PM 32.6878 -116.8764 247° West 229 264 5,000 -1,366 Descending Los Angeles Center
Tue 10:49:35 PM 32.6733 -116.9519 257° West 236 272 4,600 -823 Descending Los Angeles Center
Tue 10:50:37 PM 32.6911 -117.0167 288° West 211 243 3,300 -1,122 Descending Los Angeles Center
Tue 10:51:38 PM 32.7053 -117.0711 287° West 183 211 2,300 -976 Descending Los Angeles Center
Tue 10:52:40 PM 32.7172 -117.1231 285° West 169 194 1,300 -919 Descending Los Angeles Center
Tue 10:53:42 PM 32.7281 -117.1650 287° West 147 169 400 -871 Descending Los Angeles Center
Tue 10:55:00 PM 32.7333 -117.1833 281° West  Level FlightAware Approximate
Tue 11:02:00 PM 32.7336 -117.1897 281° West  Level Estimated

Login

Don't have an account? Register now (free) for customized features, flight alerts, and more!